Time;durP1;ratioP1;P1;durP2;ratioP2;P2;SDS_P1;SDS_P2;PMS_P1;PMS_P2;Temp;Humidity;BMP_temperature;BMP_pressure;BME280_temperature;BME280_humidity;BME280_pressure;Samples;Min_cycle;Max_cycle;Signal;HPM_P1;HPM_P2
2022/07/25 00:02:24;;;;;;;9.60;9.30;;;22.10;99.90;;;;;;5053218;28;20300;-80
2022/07/25 00:04:51;;;;;;;9.70;9.40;;;22.00;99.90;;;;;;5053128;28;20304;-80
2022/07/25 00:07:19;;;;;;;9.52;9.23;;;21.90;99.90;;;;;;5053150;28;20247;-80
2022/07/25 00:09:47;;;;;;;9.90;9.60;;;21.90;99.90;;;;;;5053810;28;20291;-80
2022/07/25 00:12:16;;;;;;;9.80;9.50;;;21.90;99.90;;;;;;5053626;28;21078;-80
2022/07/25 00:14:43;;;;;;;9.63;9.32;;;21.80;99.90;;;;;;5053215;28;20262;-81
2022/07/25 00:17:11;;;;;;;9.73;9.43;;;21.80;99.90;;;;;;5054445;28;20251;-80
2022/07/25 00:19:39;;;;;;;9.70;9.40;;;21.80;99.90;;;;;;5050584;28;20239;-80
2022/07/25 00:22:06;;;;;;;9.60;9.30;;;21.70;99.90;;;;;;5050543;28;20327;-80
2022/07/25 00:24:34;;;;;;;9.60;9.30;;;21.70;99.90;;;;;;5052192;28;20251;-81
2022/07/25 00:27:02;;;;;;;9.80;9.50;;;21.60;99.90;;;;;;5052347;28;20231;-80
2022/07/25 00:29:31;;;;;;;9.70;9.40;;;21.60;99.90;;;;;;5053457;28;20250;-80
2022/07/25 00:31:59;;;;;;;9.80;9.50;;;21.50;99.90;;;;;;5053276;28;20291;-81
2022/07/25 00:34:26;;;;;;;9.82;9.52;;;21.50;99.90;;;;;;5052355;28;20244;-80
2022/07/25 00:36:54;;;;;;;9.60;9.30;;;21.50;99.90;;;;;;5053474;28;20236;-80
2022/07/25 00:39:21;;;;;;;9.52;9.23;;;21.50;99.90;;;;;;5053238;28;20216;-80
2022/07/25 00:41:49;;;;;;;9.80;9.50;;;21.40;99.90;;;;;;5053596;28;20251;-80
2022/07/25 00:44:24;;;;;;;9.75;9.45;;;21.40;99.90;;;;;;5052997;28;20325;-80
2022/07/25 00:46:55;;;;;;;9.90;9.60;;;21.40;99.90;;;;;;5053051;28;20231;-80
2022/07/25 00:49:23;;;;;;;9.80;9.50;;;21.30;99.90;;;;;;5053495;28;20208;-80
2022/07/25 00:51:51;;;;;;;9.80;9.50;;;21.30;99.90;;;;;;5053181;28;20319;-80
2022/07/25 00:54:22;;;;;;;9.70;9.40;;;21.30;99.90;;;;;;5052586;28;20231;-80
2022/07/25 00:56:51;;;;;;;9.80;9.50;;;21.30;99.90;;;;;;5052382;28;20228;-80
2022/07/25 00:59:18;;;;;;;9.80;9.50;;;21.20;99.90;;;;;;5052764;28;20247;-80
2022/07/25 01:01:46;;;;;;;9.60;9.30;;;21.20;99.90;;;;;;5051078;28;20290;-81
2022/07/25 01:04:17;;;;;;;9.60;9.30;;;21.20;99.90;;;;;;5052666;28;20323;-80
2022/07/25 01:06:45;;;;;;;9.50;9.20;;;21.10;99.90;;;;;;5052946;28;20227;-79
2022/07/25 01:09:13;;;;;;;9.60;9.30;;;21.10;99.90;;;;;;5052480;28;20279;-80
2022/07/25 01:11:40;;;;;;;9.80;9.50;;;21.00;99.90;;;;;;5052786;28;20287;-80
2022/07/25 01:14:08;;;;;;;9.75;9.45;;;21.00;99.90;;;;;;5052315;28;20255;-80
2022/07/25 01:16:35;;;;;;;9.80;9.50;;;21.00;99.90;;;;;;5052198;28;20262;-82
2022/07/25 01:19:03;;;;;;;9.80;9.50;;;20.90;99.90;;;;;;5051782;28;20227;-80
2022/07/25 01:21:32;;;;;;;9.73;9.43;;;20.90;99.90;;;;;;5053623;28;20335;-80
2022/07/25 01:24:00;;;;;;;9.90;9.60;;;20.80;99.90;;;;;;5052978;28;20299;-80
2022/07/25 01:26:29;;;;;;;9.77;9.48;;;20.70;99.90;;;;;;5052441;28;20295;-79
2022/07/25 01:28:56;;;;;;;9.93;9.63;;;20.70;99.90;;;;;;5052097;28;20235;-80
2022/07/25 01:31:24;;;;;;;9.88;9.57;;;20.70;99.90;;;;;;5052559;28;20291;-80
2022/07/25 01:33:51;;;;;;;9.75;9.45;;;20.60;99.90;;;;;;5052924;28;20291;-80
2022/07/25 01:36:19;;;;;;;10.00;9.70;;;20.60;99.90;;;;;;5052085;28;20242;-79
2022/07/25 01:38:48;;;;;;;10.00;9.70;;;20.60;99.90;;;;;;5054313;28;20235;-79
2022/07/25 01:41:16;;;;;;;9.85;9.55;;;20.60;99.90;;;;;;5056206;28;20266;-80
2022/07/25 01:43:43;;;;;;;9.70;9.40;;;20.60;99.90;;;;;;5055347;28;20247;-80
2022/07/25 01:46:11;;;;;;;9.50;9.20;;;20.60;99.90;;;;;;5054774;28;20277;-80
2022/07/25 01:48:39;;;;;;;9.43;9.13;;;20.60;99.90;;;;;;5056520;28;20286;-80
2022/07/25 01:51:09;;;;;;;9.48;9.18;;;20.60;99.90;;;;;;5055501;28;20239;-80
2022/07/25 01:53:37;;;;;;;9.45;9.15;;;20.60;99.90;;;;;;5056753;28;20247;-80
2022/07/25 01:56:07;;;;;;;9.50;9.20;;;20.60;99.90;;;;;;5055023;28;20244;-81
2022/07/25 01:58:35;;;;;;;9.70;9.40;;;20.70;99.90;;;;;;5055977;28;20233;-80
2022/07/25 02:01:06;;;;;;;9.43;9.13;;;20.60;99.90;;;;;;5055631;28;20235;-79
2022/07/25 02:03:34;;;;;;;9.35;9.05;;;20.60;99.90;;;;;;5055899;28;20307;-80
2022/07/25 02:06:04;;;;;;;9.52;9.23;;;20.60;99.90;;;;;;5054756;28;20247;-80
2022/07/25 02:08:32;;;;;;;9.27;8.98;;;20.60;99.90;;;;;;5055594;28;20295;-80
2022/07/25 02:10:59;;;;;;;9.10;8.80;;;20.60;99.90;;;;;;5055639;28;20232;-81
2022/07/25 02:13:29;;;;;;;9.30;9.00;;;20.60;99.90;;;;;;5055445;28;20251;-79
2022/07/25 02:15:56;;;;;;;9.30;9.00;;;20.50;99.90;;;;;;5053547;28;20255;-79
2022/07/25 02:18:24;;;;;;;9.40;9.10;;;20.50;99.90;;;;;;5054411;28;20263;-81
2022/07/25 02:20:52;;;;;;;9.55;9.25;;;20.50;99.90;;;;;;5054833;28;20289;-79
2022/07/25 02:23:19;;;;;;;9.50;9.20;;;20.40;99.90;;;;;;5055313;28;20278;-80
2022/07/25 02:25:46;;;;;;;9.30;9.00;;;20.40;99.90;;;;;;5054560;28;20239;-79
2022/07/25 02:28:14;;;;;;;9.38;9.07;;;20.40;99.90;;;;;;5054541;28;20227;-79
2022/07/25 02:30:43;;;;;;;9.40;9.10;;;20.30;99.90;;;;;;5054437;28;20255;-79
2022/07/25 02:33:10;;;;;;;9.23;8.93;;;20.30;99.90;;;;;;5054493;28;20298;-80
2022/07/25 02:35:38;;;;;;;9.30;9.00;;;20.30;99.90;;;;;;5053844;28;20334;-80
2022/07/25 02:38:05;;;;;;;9.07;8.77;;;20.20;99.90;;;;;;5054225;28;20242;-79
2022/07/25 02:40:33;;;;;;;9.35;9.05;;;20.20;99.90;;;;;;5054985;28;20242;-79
2022/07/25 02:43:00;;;;;;;9.20;8.90;;;20.20;99.90;;;;;;5049400;28;20243;-79
2022/07/25 02:45:28;;;;;;;9.13;8.82;;;20.20;99.90;;;;;;5043333;28;20239;-80
2022/07/25 02:47:57;;;;;;;9.50;9.20;;;20.10;99.90;;;;;;5043504;28;20274;-80
2022/07/25 02:50:25;;;;;;;9.20;8.90;;;20.10;99.90;;;;;;5042753;28;20263;-79
2022/07/25 02:52:52;;;;;;;9.30;9.00;;;20.10;99.90;;;;;;5049010;28;20238;-79
2022/07/25 02:55:20;;;;;;;9.07;8.77;;;20.10;99.90;;;;;;5050061;28;20326;-79
2022/07/25 02:57:48;;;;;;;9.00;8.75;;;20.00;99.90;;;;;;5049602;28;20230;-80
2022/07/25 03:00:17;;;;;;;8.80;8.60;;;20.00;99.90;;;;;;5046047;28;20344;-79
2022/07/25 03:02:45;;;;;;;8.93;8.73;;;20.00;99.90;;;;;;5044943;28;20236;-80
2022/07/25 03:05:16;;;;;;;8.80;8.60;;;20.00;99.90;;;;;;5042392;28;20232;-80
2022/07/25 03:07:45;;;;;;;8.68;8.48;;;20.00;99.90;;;;;;5042661;28;20327;-80
2022/07/25 03:10:14;;;;;;;9.30;9.00;;;19.90;99.90;;;;;;5042623;28;20235;-80
2022/07/25 03:12:43;;;;;;;9.23;8.93;;;19.90;99.90;;;;;;5042776;28;20231;-80
2022/07/25 03:15:13;;;;;;;9.50;9.20;;;19.90;99.90;;;;;;5041979;28;20738;-80
2022/07/25 03:17:41;;;;;;;9.20;8.90;;;19.90;99.90;;;;;;5044382;28;20231;-80
2022/07/25 03:20:10;;;;;;;9.30;9.00;;;19.90;99.90;;;;;;5047589;28;20295;-80
2022/07/25 03:22:39;;;;;;;9.15;8.85;;;19.90;99.90;;;;;;5041759;28;20231;-80
2022/07/25 03:25:08;;;;;;;9.02;8.73;;;19.80;99.90;;;;;;5041308;28;20275;-80
2022/07/25 03:27:35;;;;;;;8.80;8.60;;;19.80;99.90;;;;;;5041151;28;20271;-80
2022/07/25 03:30:04;;;;;;;9.10;8.80;;;19.80;99.90;;;;;;5041385;28;20858;-80
2022/07/25 03:32:32;;;;;;;9.10;8.80;;;19.80;99.90;;;;;;5042133;28;20306;-80
2022/07/25 03:34:59;;;;;;;9.30;9.00;;;19.70;99.90;;;;;;5040214;28;20232;-79
2022/07/25 03:37:27;;;;;;;8.80;8.60;;;19.70;99.90;;;;;;5041525;28;20228;-80
2022/07/25 03:39:56;;;;;;;8.90;8.70;;;19.60;99.90;;;;;;5042119;28;20231;-81
2022/07/25 03:42:23;;;;;;;9.30;9.00;;;19.60;99.90;;;;;;5041532;28;20316;-80
2022/07/25 03:44:54;;;;;;;9.20;8.90;;;19.60;99.90;;;;;;5042450;28;20235;-80
2022/07/25 03:47:22;;;;;;;8.85;8.65;;;19.50;99.90;;;;;;5043636;28;20246;-80
2022/07/25 03:49:49;;;;;;;9.00;8.80;;;19.50;99.90;;;;;;5045001;28;20239;-80
2022/07/25 03:52:17;;;;;;;8.88;8.68;;;19.50;99.90;;;;;;5044511;28;20267;-80
2022/07/25 03:54:44;;;;;;;9.10;8.80;;;19.50;99.90;;;;;;5042602;28;20322;-80
2022/07/25 03:57:13;;;;;;;8.80;8.60;;;19.50;99.90;;;;;;5040977;28;20704;-80
2022/07/25 03:59:41;;;;;;;8.90;8.70;;;19.40;99.90;;;;;;5040102;28;20239;-80
2022/07/25 04:02:09;;;;;;;8.88;8.68;;;19.30;99.90;;;;;;5039783;28;20258;-80
2022/07/25 04:04:36;;;;;;;9.07;8.77;;;19.30;99.90;;;;;;5039556;28;20363;-81
2022/07/25 04:07:04;;;;;;;9.10;8.80;;;19.30;99.90;;;;;;5039166;28;20263;-79
2022/07/25 04:09:32;;;;;;;9.30;9.00;;;19.20;99.90;;;;;;5040000;28;20228;-80
2022/07/25 04:11:59;;;;;;;8.75;8.55;;;19.20;99.90;;;;;;5040445;28;20257;-80
2022/07/25 04:14:28;;;;;;;8.98;8.70;;;19.20;99.90;;;;;;5039839;28;20271;-80
2022/07/25 04:16:56;;;;;;;8.80;8.60;;;19.30;99.90;;;;;;5039894;28;20338;-80
2022/07/25 04:19:23;;;;;;;8.98;8.70;;;19.40;99.90;;;;;;5039872;28;20258;-81
2022/07/25 04:21:51;;;;;;;9.32;9.02;;;19.40;99.90;;;;;;5038957;28;20295;-80
2022/07/25 04:24:18;;;;;;;9.20;8.90;;;19.40;99.90;;;;;;5039233;28;20227;-80
2022/07/25 04:26:46;;;;;;;9.32;9.02;;;19.50;99.90;;;;;;5040221;28;20326;-80
2022/07/25 04:29:13;;;;;;;9.68;9.38;;;19.50;99.90;;;;;;5039716;28;20239;-80
2022/07/25 04:31:42;;;;;;;9.25;8.95;;;19.50;99.90;;;;;;5040275;28;20293;-80
2022/07/25 04:34:10;;;;;;;9.23;8.93;;;19.50;99.90;;;;;;5041030;28;20228;-80
2022/07/25 04:36:37;;;;;;;9.40;9.10;;;19.60;99.90;;;;;;5081121;22;20333;-76
2022/07/25 04:39:05;;;;;;;9.38;9.07;;;19.60;99.90;;;;;;5057901;28;20231;-78
2022/07/25 04:41:32;;;;;;;9.43;9.13;;;19.60;99.90;;;;;;5058981;28;20235;-76
2022/07/25 04:44:00;;;;;;;9.45;9.15;;;19.60;99.90;;;;;;5057232;28;20286;-76
2022/07/25 04:46:27;;;;;;;9.60;9.30;;;19.70;99.90;;;;;;5057032;28;20234;-77
2022/07/25 04:48:56;;;;;;;9.50;9.20;;;19.70;99.90;;;;;;5057112;28;20238;-77
2022/07/25 04:51:23;;;;;;;9.38;9.07;;;19.80;99.90;;;;;;5057066;28;20233;-77
2022/07/25 04:53:51;;;;;;;9.50;9.20;;;19.80;99.90;;;;;;5056568;28;20230;-77
2022/07/25 04:56:18;;;;;;;9.70;9.40;;;19.90;99.90;;;;;;5057762;28;20241;-76
2022/07/25 04:58:45;;;;;;;9.90;9.60;;;20.00;99.90;;;;;;5058446;28;20230;-76
2022/07/25 05:01:13;;;;;;;10.10;9.80;;;20.00;99.90;;;;;;5059433;28;20240;-76
2022/07/25 05:03:40;;;;;;;9.93;9.63;;;20.10;99.90;;;;;;5060293;28;20239;-77
2022/07/25 05:06:10;;;;;;;10.00;9.70;;;20.20;99.90;;;;;;5058145;28;20322;-76
2022/07/25 05:08:37;;;;;;;9.70;9.40;;;20.20;99.90;;;;;;5057824;28;20270;-77
2022/07/25 05:11:05;;;;;;;9.82;9.52;;;20.30;99.90;;;;;;5057484;28;20325;-77
2022/07/25 05:13:33;;;;;;;9.90;9.60;;;20.40;99.90;;;;;;5058492;28;20233;-77
2022/07/25 05:16:00;;;;;;;9.90;9.60;;;20.50;99.90;;;;;;5059791;28;20234;-76
2022/07/25 05:18:27;;;;;;;10.23;9.93;;;20.50;99.90;;;;;;5060362;28;20250;-77
2022/07/25 05:20:55;;;;;;;9.80;9.50;;;20.60;99.90;;;;;;5060754;28;20234;-77
2022/07/25 05:23:24;;;;;;;9.93;9.63;;;20.80;99.90;;;;;;5060477;28;20310;-77
2022/07/25 05:25:51;;;;;;;10.10;9.80;;;20.80;99.90;;;;;;5059760;28;20309;-77
2022/07/25 05:28:19;;;;;;;10.25;9.95;;;20.90;99.90;;;;;;5060316;28;20334;-77
2022/07/25 05:30:46;;;;;;;10.13;9.82;;;21.00;99.90;;;;;;5060415;28;20325;-76
2022/07/25 05:33:14;;;;;;;10.30;10.00;;;21.20;99.90;;;;;;5060860;28;20235;-77
2022/07/25 05:35:42;;;;;;;10.43;10.13;;;21.30;99.90;;;;;;5059383;28;20318;-77
2022/07/25 05:38:09;;;;;;;10.40;10.10;;;21.40;99.90;;;;;;5060878;28;20264;-77
2022/07/25 05:40:38;;;;;;;10.30;10.00;;;21.60;99.90;;;;;;5060761;28;20265;-76
2022/07/25 05:43:05;;;;;;;10.10;9.80;;;21.70;99.90;;;;;;5060200;28;20242;-77
2022/07/25 05:45:33;;;;;;;10.32;10.02;;;21.80;99.90;;;;;;5059684;28;20321;-77
2022/07/25 05:48:00;;;;;;;10.50;10.20;;;21.90;99.90;;;;;;5059853;28;20341;-76
2022/07/25 05:50:28;;;;;;;10.40;10.10;;;22.10;99.90;;;;;;5059399;28;20238;-77
2022/07/25 05:52:55;;;;;;;10.30;10.00;;;22.20;99.90;;;;;;5059666;28;20230;-77
2022/07/25 05:55:23;;;;;;;10.38;10.07;;;22.30;99.90;;;;;;5059639;28;20223;-76
2022/07/25 05:57:54;;;;;;;10.43;10.13;;;22.40;99.90;;;;;;5060159;28;20238;-77
2022/07/25 06:00:21;;;;;;;10.77;10.48;;;22.50;99.90;;;;;;5060833;28;20239;-77
2022/07/25 06:02:49;;;;;;;10.35;10.05;;;22.70;99.90;;;;;;5060612;28;20333;-78
2022/07/25 06:05:16;;;;;;;10.40;10.10;;;22.70;99.90;;;;;;5060026;28;20227;-76
2022/07/25 06:07:44;;;;;;;10.43;10.13;;;22.90;99.90;;;;;;5059448;28;21064;-76
2022/07/25 06:10:11;;;;;;;10.20;9.90;;;23.00;99.90;;;;;;5061745;28;20227;-82
2022/07/25 06:12:41;;;;;;;10.50;10.20;;;23.10;99.90;;;;;;5064066;28;20254;-82
2022/07/25 06:15:19;;;;;;;10.32;10.02;;;23.30;99.90;;;;;;5063851;28;20326;-82
2022/07/25 06:17:48;;;;;;;10.40;10.10;;;23.40;99.90;;;;;;5063761;28;20258;-82
2022/07/25 06:20:18;;;;;;;10.68;10.38;;;23.50;99.90;;;;;;5064757;28;20290;-82
2022/07/25 06:22:47;;;;;;;10.60;10.30;;;23.60;99.90;;;;;;5065358;28;20266;-84
2022/07/25 06:25:17;;;;;;;10.60;10.30;;;23.70;99.90;;;;;;5074759;28;20246;-81
2022/07/25 06:27:47;;;;;;;10.73;10.43;;;23.80;99.90;;;;;;5078890;28;20238;-82
2022/07/25 06:30:25;;;;;;;10.60;10.30;;;23.90;99.90;;;;;;5068806;28;20235;-82
2022/07/25 06:32:54;;;;;;;10.90;10.60;;;24.00;99.90;;;;;;5068165;28;20266;-82
2022/07/25 06:35:23;;;;;;;10.63;10.32;;;24.10;99.90;;;;;;5066430;28;20242;-82
2022/07/25 06:37:53;;;;;;;10.70;10.40;;;24.20;99.90;;;;;;5066912;28;20269;-82
2022/07/25 06:40:22;;;;;;;11.00;10.70;;;24.30;99.90;;;;;;5066458;28;20414;-82
2022/07/25 06:42:52;;;;;;;10.70;10.40;;;24.50;99.90;;;;;;5071709;28;20227;-80
2022/07/25 06:45:24;;;;;;;10.70;10.40;;;24.70;99.90;;;;;;5073025;28;20227;-82
2022/07/25 06:52:32;;;;;;;10.77;10.48;;;25.00;99.90;;;;;;4872485;28;20232;-84
2022/07/25 07:01:32;;;;;;;10.80;10.50;;;25.20;99.90;;;;;;5057070;28;20242;-88
2022/07/25 07:04:06;;;;;;;11.00;10.70;;;25.30;99.90;;;;;;5042115;28;20231;-86
2022/07/25 07:06:37;;;;;;;10.95;10.65;;;25.40;99.90;;;;;;5061238;28;20230;-86
2022/07/25 07:09:08;;;;;;;11.20;10.90;;;25.60;99.90;;;;;;5059274;28;20702;-87
2022/07/25 07:11:56;;;;;;;11.00;10.70;;;25.70;99.90;;;;;;5060282;28;20258;-88
2022/07/25 07:17:33;;;;;;;11.10;10.80;;;26.10;99.90;;;;;;5059117;28;20254;-84
2022/07/25 07:20:11;;;;;;;11.00;10.70;;;26.30;99.90;;;;;;5062252;28;20262;-88
2022/07/25 07:22:47;;;;;;;10.93;10.63;;;26.40;99.90;;;;;;5061657;28;20258;-85
2022/07/25 07:25:15;;;;;;;10.65;10.35;;;26.50;99.90;;;;;;5062276;28;20313;-81
2022/07/25 07:27:44;;;;;;;11.00;10.70;;;26.60;99.90;;;;;;5065234;28;20308;-84
2022/07/25 07:30:13;;;;;;;11.05;10.75;;;26.80;99.90;;;;;;5061876;28;20235;-84
2022/07/25 07:32:51;;;;;;;11.10;10.80;;;26.90;99.90;;;;;;5062779;28;20227;-84
2022/07/25 07:35:21;;;;;;;11.40;11.10;;;27.10;99.90;;;;;;5062325;28;20238;-82
2022/07/25 07:37:50;;;;;;;11.43;11.13;;;27.20;99.90;;;;;;5060925;28;20234;-83
2022/07/25 07:40:20;;;;;;;11.25;10.95;;;27.30;99.90;;;;;;5060191;28;20231;-84
2022/07/25 07:42:50;;;;;;;11.57;11.27;;;27.50;99.90;;;;;;5062301;28;20277;-84
2022/07/25 07:45:20;;;;;;;11.38;11.07;;;27.60;99.90;;;;;;5061030;28;20222;-82
2022/07/25 07:47:57;;;;;;;11.40;11.10;;;27.70;99.90;;;;;;5062413;28;20226;-84
2022/07/25 07:50:27;;;;;;;11.70;11.30;;;27.80;99.90;;;;;;5060326;28;20309;-85
2022/07/25 07:52:57;;;;;;;11.20;10.90;;;27.90;99.90;;;;;;5061664;28;20258;-88
2022/07/25 07:58:14;;;;;;;11.35;11.05;;;28.20;99.90;;;;;;5065350;28;20219;-86
2022/07/25 08:00:42;;;;;;;11.00;10.70;;;28.30;99.90;;;;;;5066559;28;20223;-85
2022/07/25 08:03:20;;;;;;;10.88;10.57;;;28.40;99.90;;;;;;5064482;28;20254;-86
2022/07/25 08:05:50;;;;;;;10.90;10.60;;;28.60;99.90;;;;;;5061338;28;20360;-85
2022/07/25 08:08:19;;;;;;;10.77;10.48;;;28.70;99.90;;;;;;5045602;28;20227;-84
2022/07/25 08:10:49;;;;;;;11.38;11.07;;;28.80;99.90;;;;;;5063443;28;20250;-85
2022/07/25 08:13:20;;;;;;;11.30;11.00;;;28.90;99.90;;;;;;5063417;28;20265;-85
2022/07/25 08:15:49;;;;;;;11.18;10.88;;;29.00;99.90;;;;;;5064558;28;20249;-85
2022/07/25 08:21:05;;;;;;;11.23;10.93;;;29.20;99.90;;;;;;5064053;28;20218;-83
2022/07/25 08:23:37;;;;;;;11.35;11.05;;;29.40;99.90;;;;;;5065506;28;20226;-85
2022/07/25 08:26:05;;;;;;;11.10;10.80;;;29.50;99.90;;;;;;5061566;28;20357;-81
2022/07/25 08:28:33;;;;;;;11.25;10.95;;;29.60;99.90;;;;;;5064692;28;20259;-83
2022/07/25 08:31:01;;;;;;;11.18;10.88;;;29.60;99.90;;;;;;5049482;28;20982;-83
2022/07/25 08:33:33;;;;;;;11.43;11.13;;;29.80;99.90;;;;;;5044769;28;20232;-82
2022/07/25 08:36:01;;;;;;;11.30;11.00;;;30.00;99.90;;;;;;5043452;28;20293;-82
2022/07/25 08:38:29;;;;;;;11.30;11.00;;;30.10;99.90;;;;;;5044942;28;20224;-81
2022/07/25 08:41:01;;;;;;;11.10;10.80;;;30.20;99.90;;;;;;5042440;28;20264;-85
2022/07/25 08:43:31;;;;;;;11.07;10.77;;;30.40;99.90;;;;;;5040700;28;20240;-86
2022/07/25 08:46:07;;;;;;;11.27;10.98;;;30.40;99.90;;;;;;5040309;28;20232;-86
2022/07/25 08:48:45;;;;;;;11.18;10.88;;;30.40;99.90;;;;;;5043699;28;20226;-86
2022/07/25 08:51:17;;;;;;;11.05;10.75;;;30.50;99.90;;;;;;5043658;28;20227;-86
2022/07/25 08:53:45;;;;;;;11.35;11.05;;;30.70;99.90;;;;;;5040433;28;20321;-85
2022/07/25 08:56:13;;;;;;;11.07;10.77;;;30.80;99.90;;;;;;5039755;28;20267;-86
2022/07/25 08:58:52;;;;;;;11.10;10.80;;;31.00;99.90;;;;;;5040769;28;20327;-86
2022/07/25 09:01:21;;;;;;;10.95;10.65;;;31.00;99.90;;;;;;5043337;28;20285;-84
2022/07/25 09:04:00;;;;;;;11.40;11.10;;;31.10;99.90;;;;;;5044877;28;20223;-83
2022/07/25 09:06:40;;;;;;;11.25;10.95;;;31.30;99.90;;;;;;5056057;28;20246;-84
2022/07/25 09:09:08;;;;;;;11.10;10.80;;;31.50;99.90;;;;;;5044381;28;20239;-84
2022/07/25 09:11:37;;;;;;;11.23;10.93;;;31.50;99.90;;;;;;5046057;28;20228;-84
2022/07/25 09:14:09;;;;;;;11.20;10.90;;;31.70;99.90;;;;;;5043296;28;20286;-84
2022/07/25 09:16:40;;;;;;;11.15;10.85;;;31.80;99.90;;;;;;5042416;28;20251;-83
2022/07/25 09:19:15;;;;;;;10.98;10.68;;;31.90;99.90;;;;;;5041382;28;20263;-85
2022/07/25 09:21:46;;;;;;;11.20;10.90;;;32.10;99.90;;;;;;5043574;28;20227;-84
2022/07/25 09:24:17;;;;;;;11.20;10.90;;;32.20;99.90;;;;;;5041676;28;20262;-84
2022/07/25 09:26:52;;;;;;;11.20;10.90;;;32.60;99.90;;;;;;5058300;28;20321;-85
2022/07/25 09:29:23;;;;;;;11.10;10.80;;;32.80;99.90;;;;;;5062199;28;20223;-84
2022/07/25 09:31:52;;;;;;;11.70;11.30;;;33.10;99.90;;;;;;5046470;28;20227;-84
2022/07/25 09:34:39;;;;;;;11.30;11.00;;;33.30;99.90;;;;;;5046729;28;20262;-83
2022/07/25 09:37:09;;;;;;;11.65;11.25;;;33.30;99.90;;;;;;5043859;28;20246;-85
2022/07/25 09:39:46;;;;;;;11.30;11.00;;;33.60;99.90;;;;;;5043557;28;20223;-85
2022/07/25 09:42:25;;;;;;;10.50;10.20;;;33.60;99.90;;;;;;5042793;28;20227;-84
2022/07/25 09:45:06;;;;;;;10.60;10.30;;;33.80;99.90;;;;;;5041142;28;20239;-84
2022/07/25 09:47:41;;;;;;;10.50;10.20;;;34.10;99.90;;;;;;5042309;28;20231;-84
2022/07/25 09:50:13;;;;;;;10.50;10.20;;;34.20;99.90;;;;;;5042489;28;20291;-86
2022/07/25 09:52:40;;;;;;;10.50;10.20;;;34.20;99.90;;;;;;5042064;28;20208;-85
2022/07/25 09:55:12;;;;;;;10.50;10.20;;;34.00;99.90;;;;;;5039307;28;20302;-85
2022/07/25 09:57:41;;;;;;;11.07;10.77;;;33.80;99.90;;;;;;5042276;28;20231;-86
2022/07/25 10:00:10;;;;;;;11.15;10.85;;;33.90;99.90;;;;;;5044489;28;20231;-85
2022/07/25 10:02:55;;;;;;;10.75;10.45;;;33.90;99.90;;;;;;5046046;28;20286;-85
2022/07/25 10:05:43;;;;;;;10.70;10.40;;;34.00;99.90;;;;;;5046264;28;20235;-87
2022/07/25 10:08:14;;;;;;;10.93;10.63;;;34.10;99.90;;;;;;5051977;28;20238;-87
2022/07/25 10:10:42;;;;;;;10.60;10.30;;;34.20;99.90;;;;;;5047299;28;20294;-84
2022/07/25 10:13:28;;;;;;;10.60;10.30;;;34.40;99.90;;;;;;5046548;28;20227;-85
2022/07/25 10:16:07;;;;;;;10.95;10.65;;;34.40;99.90;;;;;;5051289;28;20270;-85
2022/07/25 10:18:35;;;;;;;11.00;10.70;;;34.40;99.90;;;;;;5062516;28;20234;-85
2022/07/25 10:21:23;;;;;;;11.10;10.80;;;34.60;99.90;;;;;;5066176;28;20257;-86
2022/07/25 10:24:01;;;;;;;11.05;10.75;;;34.80;99.90;;;;;;5062010;28;20214;-86
2022/07/25 10:26:31;;;;;;;11.00;10.70;;;35.20;99.90;;;;;;5058384;28;20235;-85
2022/07/25 10:29:10;;;;;;;11.07;10.77;;;35.40;99.90;;;;;;5044491;28;20247;-87
2022/07/25 10:31:46;;;;;;;10.90;10.60;;;35.30;99.90;;;;;;5045652;28;20231;-84
2022/07/25 10:34:16;;;;;;;10.93;10.63;;;35.20;99.90;;;;;;5046181;28;20263;-84
2022/07/25 10:36:48;;;;;;;11.13;10.82;;;35.50;99.90;;;;;;5063507;23;20238;-86
2022/07/25 10:39:18;;;;;;;11.13;10.82;;;35.60;99.90;;;;;;5039597;28;20234;-86
2022/07/25 10:41:52;;;;;;;10.68;10.38;;;35.90;99.90;;;;;;5040882;28;20279;-84
2022/07/25 10:44:23;;;;;;;11.05;10.75;;;36.00;99.90;;;;;;5039513;28;20224;-84
2022/07/25 10:46:52;;;;;;;11.02;10.73;;;36.00;99.90;;;;;;5028865;28;20267;-86
2022/07/25 10:49:23;;;;;;;11.10;10.80;;;35.80;99.90;;;;;;5020810;28;20220;-86
2022/07/25 10:52:08;;;;;;;11.05;10.75;;;35.80;99.90;;;;;;5020204;28;20240;-89
2022/07/25 10:54:38;;;;;;;11.10;10.80;;;35.70;99.90;;;;;;5019970;28;20242;-84
2022/07/25 10:57:16;;;;;;;10.95;10.65;;;35.70;99.90;;;;;;5019725;28;20327;-86
2022/07/25 10:59:46;;;;;;;10.60;10.30;;;35.90;99.90;;;;;;5020230;28;20260;-85
2022/07/25 11:02:16;;;;;;;10.70;10.40;;;36.30;99.90;;;;;;5019669;28;20311;-84
2022/07/25 11:04:45;;;;;;;10.80;10.50;;;36.60;99.90;;;;;;5018974;28;20282;-84
2022/07/25 11:07:16;;;;;;;10.60;10.30;;;36.80;99.90;;;;;;5019061;28;20243;-84
2022/07/25 11:09:45;;;;;;;10.70;10.40;;;36.50;99.90;;;;;;5019792;28;20267;-84
2022/07/25 11:12:16;;;;;;;10.48;10.18;;;36.20;99.90;;;;;;5018905;28;20290;-86
2022/07/25 11:14:44;;;;;;;10.75;10.45;;;36.10;99.90;;;;;;5019449;28;20212;-86
2022/07/25 11:17:15;;;;;;;10.93;10.63;;;36.30;99.90;;;;;;5019600;28;20242;-85
2022/07/25 11:19:44;;;;;;;10.90;10.60;;;36.40;99.90;;;;;;5019480;28;20271;-85
2022/07/25 11:22:21;;;;;;;11.10;10.80;;;36.90;99.90;;;;;;5013360;28;20232;-87
2022/07/25 11:24:50;;;;;;;11.00;10.70;;;37.40;99.90;;;;;;4999263;28;20233;-84
2022/07/25 11:27:29;;;;;;;11.05;10.75;;;37.70;99.90;;;;;;4999237;28;20236;-83
2022/07/25 11:30:07;;;;;;;10.75;10.45;;;37.50;99.90;;;;;;4999287;28;20244;-84
2022/07/25 11:32:48;;;;;;;10.90;10.60;;;37.90;99.90;;;;;;4999362;28;20252;-85
2022/07/25 11:35:17;;;;;;;10.85;10.55;;;38.00;99.90;;;;;;5002510;28;20220;-83
2022/07/25 11:37:48;;;;;;;10.80;10.50;;;38.00;99.90;;;;;;5008582;28;20268;-84
2022/07/25 11:40:17;;;;;;;11.00;10.70;;;38.00;99.90;;;;;;5000100;28;20244;-83
2022/07/25 11:42:49;;;;;;;10.80;10.50;;;37.80;99.90;;;;;;4999615;28;20252;-84
2022/07/25 11:45:21;;;;;;;10.85;10.55;;;37.60;99.90;;;;;;5000842;28;20288;-83
2022/07/25 11:47:50;;;;;;;10.68;10.38;;;37.50;99.90;;;;;;5016981;28;20244;-81
2022/07/25 11:50:20;;;;;;;10.90;10.60;;;37.40;99.90;;;;;;5020109;28;20240;-80
2022/07/25 11:53:00;;;;;;;10.60;10.30;;;37.50;99.90;;;;;;5020708;28;20240;-83
2022/07/25 11:55:39;;;;;;;10.70;10.40;;;37.70;99.90;;;;;;5016383;28;20228;-84
2022/07/25 11:58:08;;;;;;;10.65;10.35;;;37.70;99.90;;;;;;5019608;28;20341;-83
2022/07/25 12:00:53;;;;;;;10.77;10.48;;;38.00;99.90;;;;;;5019807;28;20232;-88
2022/07/25 12:03:22;;;;;;;10.73;10.43;;;38.00;99.90;;;;;;5019761;28;20230;-88
2022/07/25 12:05:53;;;;;;;10.73;10.43;;;38.10;99.90;;;;;;5018739;28;20267;-83
2022/07/25 12:09:23;;;;;;;10.90;10.60;;;38.00;99.90;;;;;;5019587;28;20267;-86
2022/07/25 12:12:02;;;;;;;10.93;10.63;;;38.10;99.90;;;;;;5011984;28;20234;-88
2022/07/25 12:14:30;;;;;;;11.27;10.98;;;38.60;99.90;;;;;;5021960;28;20235;-87
2022/07/25 12:17:01;;;;;;;11.20;10.90;;;38.70;99.90;;;;;;5030101;28;20235;-84
2022/07/25 12:19:29;;;;;;;11.18;10.88;;;38.80;99.90;;;;;;5038755;28;20219;-85
2022/07/25 12:22:00;;;;;;;11.20;10.90;;;38.90;99.90;;;;;;5038525;28;20291;-86
2022/07/25 12:24:31;;;;;;;10.98;10.68;;;39.00;99.90;;;;;;5038647;28;20220;-83
2022/07/25 12:27:00;;;;;;;10.90;10.60;;;39.30;99.90;;;;;;5037886;28;20219;-85
2022/07/25 12:29:28;;;;;;;10.95;10.65;;;39.40;99.90;;;;;;5024384;28;20264;-86
2022/07/25 12:31:56;;;;;;;11.40;11.10;;;38.90;99.90;;;;;;5021987;28;20404;-86
2022/07/25 12:34:26;;;;;;;11.10;10.80;;;38.90;99.90;;;;;;5016383;28;20436;-86
2022/07/25 12:37:05;;;;;;;11.05;10.75;;;39.10;99.90;;;;;;5021514;28;20262;-88
2022/07/25 12:39:36;;;;;;;10.93;10.63;;;39.30;99.90;;;;;;5022200;28;20259;-86
2022/07/25 12:42:04;;;;;;;10.65;10.35;;;39.50;99.90;;;;;;5020569;28;20243;-87
2022/07/25 12:44:32;;;;;;;10.68;10.38;;;39.40;99.90;;;;;;5019575;28;20236;-87
2022/07/25 12:47:02;;;;;;;10.73;10.43;;;38.90;99.90;;;;;;5019423;28;20228;-86
2022/07/25 12:49:33;;;;;;;10.50;10.20;;;38.70;99.60;;;;;;5019801;28;20242;-87
2022/07/25 12:52:09;;;;;;;10.60;10.30;;;38.30;99.60;;;;;;5028234;28;20311;-89
2022/07/25 12:57:26;;;;;;;10.90;10.60;;;38.30;99.00;;;;;;5018463;28;20307;-85
2022/07/25 12:59:55;;;;;;;10.65;10.35;;;38.50;98.90;;;;;;5019825;28;20263;-85
2022/07/25 13:02:25;;;;;;;10.70;10.40;;;38.90;97.60;;;;;;5018972;28;20236;-84
2022/07/25 13:04:54;;;;;;;10.70;10.40;;;39.20;96.90;;;;;;5017691;28;20234;-84
2022/07/25 13:07:24;;;;;;;10.73;10.43;;;39.30;96.60;;;;;;5017444;28;20243;-86
2022/07/25 13:10:02;;;;;;;10.68;10.38;;;39.60;96.50;;;;;;5018357;28;20244;-85
2022/07/25 13:12:31;;;;;;;10.60;10.30;;;39.90;95.20;;;;;;5019008;28;20737;-84
2022/07/25 13:15:01;;;;;;;10.40;10.10;;;39.90;93.40;;;;;;5017826;28;20295;-84